Time;durP1;ratioP1;P1;durP2;ratioP2;P2;SDS_P1;SDS_P2;PMS_P1;PMS_P2;Temp;Humidity;BMP_temperature;BMP_pressure;BME280_temperature;BME280_humidity;BME280_pressure;Samples;Min_cycle;Max_cycle;Signal;HPM_P1;HPM_P2
2022/06/01 00:00:22;;;;;;;4.15;3.03;;;;;;;18.05;nan;-24319.72;5074652;28;20182;-55
2022/06/01 00:02:48;;;;;;;4.05;3.13;;;;;;;17.77;nan;-24311.91;5072852;28;20605;-56
2022/06/01 00:05:13;;;;;;;8.23;3.20;;;;;;;17.56;nan;-24306.34;5074994;28;20182;-55
2022/06/01 00:07:39;;;;;;;5.05;3.95;;;;;;;17.87;nan;-24314.84;5076841;28;20182;-56
2022/06/01 00:10:05;;;;;;;5.32;4.13;;;;;;;17.97;nan;-24317.50;5076197;28;20209;-56
2022/06/01 00:12:31;;;;;;;5.03;3.40;;;;;;;18.13;nan;-24321.81;5075849;28;20672;-55
2022/06/01 00:14:57;;;;;;;4.22;2.80;;;;;;;18.34;nan;-24327.81;5072461;28;20197;-56
2022/06/01 00:17:23;;;;;;;4.75;2.95;;;;;;;18.28;nan;-24326.13;5073268;28;20271;-56
2022/06/01 00:19:49;;;;;;;5.13;3.50;;;;;;;18.61;nan;-24335.06;5073090;28;20209;-55
2022/06/01 00:22:15;;;;;;;3.80;2.70;;;;;;;18.74;nan;-24338.69;5072860;28;20209;-56
2022/06/01 00:24:46;;;;;;;4.72;3.13;;;;;;;18.82;nan;-24341.03;5077159;28;20268;-56
2022/06/01 00:27:13;;;;;;;7.53;3.20;;;;;;;18.47;nan;-24331.44;5077831;28;20189;-55
2022/06/01 00:29:39;;;;;;;5.00;3.00;;;;;;;18.46;nan;-24331.16;5072414;28;20230;-55
2022/06/01 00:32:06;;;;;;;5.72;3.17;;;;;;;18.49;nan;-24331.84;5077556;28;20240;-56
2022/06/01 00:34:32;;;;;;;4.03;3.20;;;;;;;18.24;nan;-24324.88;5072486;28;20210;-56
2022/06/01 00:36:57;;;;;;;3.95;2.92;;;;;;;18.14;nan;-24322.09;5074763;28;20203;-56
2022/06/01 00:39:23;;;;;;;4.63;3.17;;;;;;;18.55;nan;-24333.53;5081199;28;20311;-56
2022/06/01 00:41:49;;;;;;;4.45;3.25;;;;;;;18.54;nan;-24333.38;5076597;28;20199;-56
2022/06/01 00:44:14;;;;;;;6.72;3.22;;;;;;;18.87;nan;-24342.44;5076499;28;20672;-56
2022/06/01 00:46:40;;;;;;;4.65;3.30;;;;;;;18.61;nan;-24335.06;5076966;28;20188;-56
2022/06/01 00:49:21;;;;;;;4.30;3.10;;;;;;;18.45;nan;-24330.75;5076238;28;20184;-56
2022/06/01 00:51:48;;;;;;;4.50;3.00;;;;;;;18.37;nan;-24328.66;5074299;28;20194;-56
2022/06/01 00:54:14;;;;;;;4.20;3.05;;;;;;;18.42;nan;-24330.03;5072296;28;20204;-56
2022/06/01 00:56:47;;;;;;;5.22;3.25;;;;;;;18.53;nan;-24332.97;5072457;28;20677;-55
2022/06/01 00:59:19;;;;;;;5.43;3.50;;;;;;;18.44;nan;-24330.59;5074255;28;20603;-55
2022/06/01 01:01:46;;;;;;;4.50;3.17;;;;;;;18.32;nan;-24327.25;5079074;28;20177;-55
2022/06/01 01:04:12;;;;;;;3.83;2.67;;;;;;;18.27;nan;-24325.72;5078397;28;20232;-55
2022/06/01 01:06:40;;;;;;;4.53;3.10;;;;;;;18.22;nan;-24324.47;5077105;28;20228;-58
2022/06/01 01:09:07;;;;;;;6.43;3.13;;;;;;;17.87;nan;-24314.84;5076423;28;20217;-56
2022/06/01 01:12:05;;;;;;;5.20;3.42;;;;;;;18.19;nan;-24323.50;5078213;28;20265;-55
2022/06/01 01:14:34;;;;;;;6.20;3.45;;;;;;;18.29;nan;-24326.28;5105722;27;20250;-56
2022/06/01 01:17:01;;;;;;;3.78;2.72;;;;;;;18.42;nan;-24329.91;5071747;28;20264;-55
2022/06/01 01:19:37;;;;;;;4.63;2.80;;;;;;;18.18;nan;-24323.34;5075616;28;20220;-55
2022/06/01 01:22:31;;;;;;;3.67;2.85;;;;;;;17.63;nan;-24308.16;5079536;28;20208;-56
2022/06/01 01:25:15;;;;;;;5.28;3.15;;;;;;;18.50;nan;-24332.28;5079596;28;20186;-55
2022/06/01 01:27:41;;;;;;;3.78;2.65;;;;;;;18.18;nan;-24323.34;5075129;28;20243;-56
2022/06/01 01:30:25;;;;;;;3.67;2.85;;;;;;;18.47;nan;-24331.44;5075940;28;20178;-56
2022/06/01 01:32:51;;;;;;;3.35;2.45;;;;;;;15.11;nan;-24238.53;5076306;28;20177;-56
2022/06/01 01:35:17;;;;;;;4.82;2.83;;;;;;;18.37;nan;-24328.50;5075326;28;20262;-55
2022/06/01 01:37:43;;;;;;;6.47;2.92;;;;;;;18.35;nan;-24327.94;5076080;28;20185;-56
2022/06/01 01:40:09;;;;;;;4.47;3.13;;;;;;;18.01;nan;-24318.63;5076776;28;20618;-56
2022/06/01 01:42:35;;;;;;;4.38;3.20;;;;;;;18.04;nan;-24319.44;5076486;28;20260;-56
2022/06/01 01:45:23;;;;;;;4.65;3.05;;;;;;;18.23;nan;-24324.59;5076362;28;20664;-56
2022/06/01 01:47:50;;;;;;;4.65;2.85;;;;;;;17.99;nan;-24318.06;5066405;28;20194;-56
2022/06/01 01:50:16;;;;;;;3.30;2.70;;;;;;;17.88;nan;-24315.13;5074063;28;20200;-57
2022/06/01 01:52:42;;;;;;;3.30;2.83;;;;;;;17.62;nan;-24308.00;5077499;28;20186;-56
2022/06/01 01:55:13;;;;;;;5.13;2.92;;;;;;;17.82;nan;-24313.47;5077329;28;20229;-56
2022/06/01 01:57:56;;;;;;;4.35;3.28;;;;;;;17.88;nan;-24315.13;5078273;28;20715;-56
2022/06/01 02:00:27;;;;;;;4.63;3.05;;;;;;;15.24;nan;-24242.03;5115141;27;20222;-56
2022/06/01 02:03:12;;;;;;;5.47;3.03;;;;;;;17.89;nan;-24315.41;5076650;28;20188;-56
2022/06/01 02:06:03;;;;;;;4.47;2.85;;;;;;;17.65;nan;-24308.84;5075163;28;20185;-57
2022/06/01 02:08:35;;;;;;;5.78;2.90;;;;;;;17.48;nan;-24304.09;5075545;28;20671;-57
2022/06/01 02:13:52;;;;;;;6.13;3.38;;;;;;;17.25;nan;-24297.69;5080711;28;20208;-56
2022/06/01 02:16:19;;;;;;;5.07;2.78;;;;;;;17.56;nan;-24306.19;5078486;28;20216;-57
2022/06/01 02:18:50;;;;;;;4.50;2.85;;;;;;;17.68;nan;-24309.56;5078805;28;20186;-56
2022/06/01 02:21:21;;;;;;;4.55;3.03;;;;;;;17.66;nan;-24309.00;5078002;28;20174;-56
2022/06/01 02:23:48;;;;;;;3.83;2.80;;;;;;;17.51;nan;-24304.81;5075120;28;20209;-56
2022/06/01 02:26:14;;;;;;;4.15;3.10;;;;;;;17.51;nan;-24304.81;5076343;28;20178;-56
2022/06/01 02:28:42;;;;;;;4.05;2.90;;;;;;;17.61;nan;-24307.75;5079738;28;20177;-56
2022/06/01 02:31:10;;;;;;;4.28;2.80;;;;;;;17.47;nan;-24303.81;5078964;28;20177;-56
2022/06/01 02:33:37;;;;;;;3.38;2.65;;;;;;;17.26;nan;-24297.97;5078677;28;20183;-57
2022/06/01 02:36:05;;;;;;;3.92;3.20;;;;;;;17.53;nan;-24305.34;5073836;28;20645;-56
2022/06/01 02:38:37;;;;;;;5.95;2.80;;;;;;;17.63;nan;-24308.28;5076807;28;20269;-56
2022/06/01 02:41:03;;;;;;;3.10;2.58;;;;;;;17.69;nan;-24309.69;5075775;28;20186;-56
2022/06/01 02:43:29;;;;;;;4.78;2.83;;;;;;;17.69;nan;-24309.84;5077939;28;20178;-54
2022/06/01 02:45:54;;;;;;;4.57;2.92;;;;;;;17.46;nan;-24303.56;5074607;28;20213;-55
2022/06/01 02:48:20;;;;;;;5.20;2.63;;;;;;;17.52;nan;-24305.22;5076226;28;20624;-55
2022/06/01 02:50:45;;;;;;;4.22;2.85;;;;;;;17.25;nan;-24297.69;5076086;28;20213;-56
2022/06/01 02:53:11;;;;;;;4.18;2.67;;;;;;;17.39;nan;-24301.59;5075374;28;20177;-56
2022/06/01 02:55:36;;;;;;;5.15;2.95;;;;;;;17.32;nan;-24299.63;5074236;28;20237;-56
2022/06/01 02:58:03;;;;;;;5.53;3.10;;;;;;;17.30;nan;-24299.09;5075578;28;20181;-56
2022/06/01 03:00:34;;;;;;;3.20;2.80;;;;;;;17.58;nan;-24306.91;5073646;28;20247;-56
2022/06/01 03:03:00;;;;;;;5.60;3.22;;;;;;;17.69;nan;-24309.69;5066738;28;20186;-55
2022/06/01 03:05:29;;;;;;;3.53;2.70;;;;;;;17.97;nan;-24317.63;5069279;28;20171;-55
2022/06/01 03:07:56;;;;;;;5.55;3.03;;;;;;;18.09;nan;-24320.97;5068274;28;20268;-56
2022/06/01 03:10:22;;;;;;;4.65;2.67;;;;;;;18.94;nan;-24344.25;5067368;28;20181;-56
2022/06/01 03:12:48;;;;;;;3.15;2.63;;;;;;;19.96;nan;-24372.22;5068797;28;20187;-56
2022/06/01 03:15:15;;;;;;;4.43;3.08;;;;;;;20.37;nan;-24383.59;5071593;28;20206;-56
2022/06/01 03:17:41;;;;;;;8.45;3.50;;;;;;;20.67;nan;-24391.94;5077596;28;20214;-57
2022/06/01 03:20:08;;;;;;;3.78;2.92;;;;;;;21.83;nan;-24423.53;5078587;28;20660;-57
2022/06/01 03:22:38;;;;;;;4.32;3.05;;;;;;;23.02;nan;-24456.06;5072826;28;20279;-56
2022/06/01 03:25:07;;;;;;;3.47;2.38;;;;;;;24.09;nan;-24485.31;5073864;28;20166;-57
2022/06/01 03:27:33;;;;;;;5.25;3.17;;;;;;;24.62;nan;-24499.81;5076010;28;20226;-58
2022/06/01 03:29:59;;;;;;;5.00;2.95;;;;;;;25.02;nan;-24510.81;5076478;28;20231;-58
2022/06/01 03:32:24;;;;;;;5.93;3.17;;;;;;;25.56;nan;-24525.41;5072365;28;20537;-57
2022/06/01 03:34:50;;;;;;;5.63;3.25;;;;;;;26.67;nan;-24555.66;5072368;28;20270;-58
2022/06/01 03:37:16;;;;;;;5.95;3.55;;;;;;;27.32;nan;-24573.06;5072043;28;20182;-57
2022/06/01 03:39:41;;;;;;;5.00;3.13;;;;;;;28.15;nan;-24595.53;5072430;28;20595;-58
2022/06/01 03:42:07;;;;;;;4.55;2.97;;;;;;;28.72;nan;-24611.13;5070606;28;20283;-57
2022/06/01 03:47:16;;;;;;;3.65;2.78;;;;;;;29.03;nan;-24619.47;5074963;28;20717;-57
2022/06/01 03:49:43;;;;;;;4.85;3.15;;;;;;;29.62;nan;-24635.44;5078659;28;20177;-57
2022/06/01 03:52:10;;;;;;;5.35;2.67;;;;;;;29.96;nan;-24644.47;5074447;28;20726;-57
2022/06/01 03:54:36;;;;;;;5.72;2.78;;;;;;;30.20;nan;-24651.00;5073977;28;20284;-56
2022/06/01 03:57:02;;;;;;;2.50;2.25;;;;;;;30.84;nan;-24668.31;5074172;28;20173;-57
2022/06/01 03:59:29;;;;;;;2.75;2.35;;;;;;;30.92;nan;-24670.47;5072884;28;20189;-58
2022/06/01 04:01:54;;;;;;;5.72;2.85;;;;;;;31.28;nan;-24680.13;5074023;28;20184;-58
2022/06/01 04:04:20;;;;;;;4.18;2.78;;;;;;;31.74;nan;-24692.50;5073440;28;20620;-58
2022/06/01 04:06:45;;;;;;;2.85;2.40;;;;;;;32.27;nan;-24706.78;5070555;28;20681;-59
2022/06/01 04:09:11;;;;;;;6.50;2.40;;;;;;;32.23;nan;-24705.69;5073382;28;20177;-58
2022/06/01 04:11:36;;;;;;;3.13;2.50;;;;;;;32.64;nan;-24716.56;5075066;28;20178;-58
2022/06/01 04:14:02;;;;;;;5.50;2.60;;;;;;;32.50;nan;-24712.88;5075331;28;20208;-58
2022/06/01 04:16:28;;;;;;;3.42;2.67;;;;;;;32.86;nan;-24722.50;5077086;28;20268;-57
2022/06/01 04:18:53;;;;;;;3.33;2.58;;;;;;;33.14;nan;-24730.09;5075885;28;20567;-58
2022/06/01 04:21:23;;;;;;;3.20;2.20;;;;;;;33.03;nan;-24727.13;5080671;28;20239;-57
2022/06/01 04:23:50;;;;;;;5.38;2.60;;;;;;;33.37;nan;-24736.19;5076331;28;20185;-57
2022/06/01 04:26:16;;;;;;;3.03;2.50;;;;;;;33.18;nan;-24731.19;5076948;28;20653;-57
2022/06/01 04:28:43;;;;;;;3.75;2.65;;;;;;;33.40;nan;-24736.88;5079097;28;20652;-57
2022/06/01 04:31:08;;;;;;;3.45;2.50;;;;;;;33.00;nan;-24726.19;5079180;28;20261;-58
2022/06/01 04:33:34;;;;;;;3.58;2.70;;;;;;;33.05;nan;-24727.66;5072579;28;21062;-57
2022/06/01 04:35:59;;;;;;;4.53;2.78;;;;;;;31.41;nan;-24683.69;5075572;28;20216;-58
2022/06/01 04:38:26;;;;;;;4.53;2.60;;;;;;;32.70;nan;-24718.31;5074314;28;20189;-58
2022/06/01 04:40:51;;;;;;;9.25;3.05;;;;;;;32.53;nan;-24713.56;5072032;28;20180;-58
2022/06/01 04:43:20;;;;;;;6.50;2.72;;;;;;;32.08;nan;-24701.63;5072248;28;20197;-58
2022/06/01 04:45:50;;;;;;;3.42;2.55;;;;;;;32.11;nan;-24702.28;5073995;28;20182;-58
2022/06/01 04:48:15;;;;;;;4.22;2.80;;;;;;;32.07;nan;-24701.34;5071925;28;20186;-57
2022/06/01 04:50:44;;;;;;;3.30;2.80;;;;;;;31.47;nan;-24685.16;5071900;28;20188;-57
2022/06/01 04:53:14;;;;;;;4.65;2.63;;;;;;;31.14;nan;-24676.47;5071858;28;20173;-57
2022/06/01 04:55:41;;;;;;;3.72;2.85;;;;;;;31.05;nan;-24674.03;5071796;28;20236;-57
2022/06/01 04:58:06;;;;;;;3.85;2.55;;;;;;;30.67;nan;-24663.81;5071562;28;20770;-57
2022/06/01 05:00:33;;;;;;;3.38;2.38;;;;;;;30.60;nan;-24661.91;5071789;28;20253;-57
2022/06/01 05:02:59;;;;;;;3.83;3.10;;;;;;;30.35;nan;-24654.94;5071383;28;20204;-57
2022/06/01 05:05:24;;;;;;;3.88;2.53;;;;;;;30.41;nan;-24656.59;5071092;28;20584;-58
2022/06/01 05:07:50;;;;;;;3.30;2.60;;;;;;;30.08;nan;-24647.72;5071696;28;20221;-58
2022/06/01 05:10:15;;;;;;;3.40;2.60;;;;;;;29.90;nan;-24642.97;5071382;28;20543;-58
2022/06/01 05:12:41;;;;;;;3.92;3.13;;;;;;;29.81;nan;-24640.50;5071092;28;20204;-57
2022/06/01 05:15:07;;;;;;;4.50;3.00;;;;;;;29.07;nan;-24620.56;5070909;28;20683;-57
2022/06/01 05:17:33;;;;;;;3.67;2.58;;;;;;;28.75;nan;-24611.81;5070122;28;20204;-58
2022/06/01 05:19:59;;;;;;;5.40;2.65;;;;;;;28.33;nan;-24600.47;5071387;28;20177;-58
2022/06/01 05:22:24;;;;;;;3.70;2.72;;;;;;;28.63;nan;-24608.53;5076616;28;20173;-58
2022/06/01 05:24:50;;;;;;;3.63;2.58;;;;;;;27.94;nan;-24589.91;5071445;28;20781;-58
2022/06/01 05:27:15;;;;;;;3.97;2.58;;;;;;;28.06;nan;-24593.22;5069411;28;20178;-58
2022/06/01 05:29:41;;;;;;;3.58;2.78;;;;;;;28.50;nan;-24605.13;5073374;28;20178;-59
2022/06/01 05:32:07;;;;;;;3.28;2.22;;;;;;;28.85;nan;-24614.69;5070926;28;20185;-57
2022/06/01 05:34:32;;;;;;;3.53;2.45;;;;;;;28.44;nan;-24603.47;5071427;28;20197;-57
2022/06/01 05:36:57;;;;;;;3.25;2.63;;;;;;;27.99;nan;-24591.44;5071046;28;20173;-59
2022/06/01 05:39:24;;;;;;;3.83;2.67;;;;;;;27.47;nan;-24577.19;5070875;28;20269;-59
2022/06/01 05:41:50;;;;;;;3.53;2.40;;;;;;;27.25;nan;-24571.41;5069775;28;20173;-58
2022/06/01 05:44:16;;;;;;;5.07;2.30;;;;;;;26.05;nan;-24538.75;5071145;28;20238;-58
2022/06/01 05:46:42;;;;;;;4.05;2.22;;;;;;;26.13;nan;-24540.81;5070852;28;20177;-58
2022/06/01 05:49:07;;;;;;;3.90;2.63;;;;;;;25.67;nan;-24528.31;5071111;28;20162;-59
2022/06/01 05:51:35;;;;;;;3.25;2.58;;;;;;;25.25;nan;-24516.88;5070773;28;20174;-58
2022/06/01 05:54:01;;;;;;;5.65;2.40;;;;;;;24.67;nan;-24501.19;5072170;28;20233;-57
2022/06/01 05:56:26;;;;;;;5.30;3.20;;;;;;;24.52;nan;-24497.19;5070273;28;20732;-58
2022/06/01 05:58:52;;;;;;;4.00;2.60;;;;;;;24.25;nan;-24489.75;5071122;28;20170;-59
2022/06/01 06:01:21;;;;;;;4.05;2.60;;;;;;;24.30;nan;-24491.13;5070601;28;20657;-58
2022/06/01 06:03:47;;;;;;;4.20;3.10;;;;;;;23.81;nan;-24477.59;5070292;28;20174;-57
2022/06/01 06:06:12;;;;;;;7.47;3.25;;;;;;;23.82;nan;-24478.00;5070643;28;20257;-57
2022/06/01 06:08:46;;;;;;;4.50;2.83;;;;;;;23.83;nan;-24478.16;5070682;28;20223;-58
2022/06/01 06:11:13;;;;;;;3.30;2.55;;;;;;;23.62;nan;-24472.63;5070268;28;20656;-58
2022/06/01 06:13:38;;;;;;;4.18;2.65;;;;;;;23.97;nan;-24482.00;5070418;28;20174;-57
2022/06/01 06:16:04;;;;;;;3.35;2.78;;;;;;;23.49;nan;-24469.03;5070667;28;20691;-58
2022/06/01 06:18:30;;;;;;;5.25;2.90;;;;;;;23.21;nan;-24461.44;5071034;28;20162;-59
2022/06/01 06:20:56;;;;;;;3.88;2.78;;;;;;;23.79;nan;-24477.19;5070939;28;20197;-58
2022/06/01 06:23:22;;;;;;;3.75;3.08;;;;;;;23.85;nan;-24478.69;5070627;28;20170;-57
2022/06/01 06:25:48;;;;;;;4.50;2.92;;;;;;;24.24;nan;-24489.31;5070487;28;20625;-59
2022/06/01 06:28:13;;;;;;;5.65;2.70;;;;;;;24.32;nan;-24491.69;5070652;28;20633;-57
2022/06/01 06:30:39;;;;;;;2.97;2.45;;;;;;;24.41;nan;-24494.16;5072841;28;20660;-58
2022/06/01 06:33:06;;;;;;;6.82;2.67;;;;;;;24.85;nan;-24506.13;5075276;28;20197;-58
2022/06/01 06:35:32;;;;;;;3.65;2.85;;;;;;;24.80;nan;-24504.63;5075072;28;20288;-57
2022/06/01 06:37:59;;;;;;;3.55;2.72;;;;;;;24.83;nan;-24505.44;5076107;28;20177;-57
2022/06/01 06:40:26;;;;;;;3.25;2.60;;;;;;;24.88;nan;-24506.81;5078437;28;20173;-57
2022/06/01 06:42:52;;;;;;;4.18;2.85;;;;;;;24.73;nan;-24502.84;5081877;28;20174;-57
2022/06/01 06:45:19;;;;;;;4.50;2.78;;;;;;;24.71;nan;-24502.16;5079289;28;20181;-57
2022/06/01 06:47:45;;;;;;;4.70;3.05;;;;;;;25.04;nan;-24511.38;5076581;28;20184;-59
2022/06/01 06:50:15;;;;;;;4.38;3.10;;;;;;;25.24;nan;-24516.75;5074113;28;20178;-58
2022/06/01 06:52:41;;;;;;;4.05;3.10;;;;;;;24.95;nan;-24508.91;5073473;28;20537;-58
2022/06/01 06:55:08;;;;;;;3.53;2.83;;;;;;;25.17;nan;-24514.81;5075210;28;20300;-58
2022/06/01 06:57:34;;;;;;;3.75;2.90;;;;;;;25.28;nan;-24517.84;5077881;28;20553;-57
2022/06/01 07:00:01;;;;;;;4.03;3.22;;;;;;;25.40;nan;-24521.16;5079180;28;20186;-57
2022/06/01 07:02:26;;;;;;;3.50;2.95;;;;;;;25.17;nan;-24514.81;5079163;28;20532;-58
2022/06/01 07:04:52;;;;;;;3.97;2.58;;;;;;;25.08;nan;-24512.47;5078801;28;20189;-59
2022/06/01 07:07:18;;;;;;;6.63;3.00;;;;;;;24.96;nan;-24509.03;5072985;28;20208;-59
2022/06/01 07:09:44;;;;;;;3.65;2.60;;;;;;;25.55;nan;-24525.13;5072092;28;20214;-56
2022/06/01 07:12:10;;;;;;;4.97;2.85;;;;;;;25.22;nan;-24516.19;5078601;28;20184;-58
2022/06/01 07:14:36;;;;;;;5.28;2.80;;;;;;;25.40;nan;-24521.16;5072083;28;20326;-57
2022/06/01 07:17:03;;;;;;;5.25;2.53;;;;;;;25.81;nan;-24532.16;5073581;28;20203;-59
2022/06/01 07:19:29;;;;;;;3.30;2.70;;;;;;;25.78;nan;-24531.47;5073723;28;20211;-57
2022/06/01 07:21:54;;;;;;;4.70;2.90;;;;;;;25.46;nan;-24522.66;5073448;28;20167;-57
2022/06/01 07:24:21;;;;;;;3.55;2.60;;;;;;;25.89;nan;-24534.34;5073811;28;20181;-58
2022/06/01 07:26:48;;;;;;;4.95;2.65;;;;;;;26.21;nan;-24543.16;5073989;28;20162;-58
2022/06/01 07:29:16;;;;;;;3.88;2.85;;;;;;;26.00;nan;-24537.38;5073670;28;20178;-58
2022/06/01 07:31:43;;;;;;;3.55;2.60;;;;;;;26.04;nan;-24538.34;5073715;28;20193;-58
2022/06/01 07:34:08;;;;;;;5.60;2.22;;;;;;;25.98;nan;-24536.69;5073624;28;20174;-58
2022/06/01 07:36:34;;;;;;;4.15;2.70;;;;;;;25.60;nan;-24526.38;5073260;28;20662;-58
2022/06/01 07:44:31;;;;;;;4.78;2.80;;;;;;;25.99;nan;-24536.97;5075050;28;20197;-58
2022/06/01 07:46:57;;;;;;;4.18;2.95;;;;;;;26.18;nan;-24542.31;5075506;28;20247;-58
2022/06/01 07:49:23;;;;;;;3.78;2.67;;;;;;;26.78;nan;-24558.53;5076087;28;20604;-58
2022/06/01 07:51:49;;;;;;;3.63;2.60;;;;;;;26.32;nan;-24546.16;5079456;28;20312;-58
2022/06/01 07:54:15;;;;;;;5.15;3.05;;;;;;;26.82;nan;-24559.63;5073885;28;20201;-58
2022/06/01 07:56:40;;;;;;;3.85;2.50;;;;;;;26.71;nan;-24556.75;5072788;28;20222;-58
2022/06/01 07:59:07;;;;;;;4.03;2.53;;;;;;;26.88;nan;-24561.28;5072627;28;20196;-58
2022/06/01 08:01:33;;;;;;;3.17;2.60;;;;;;;27.03;nan;-24565.38;5072514;28;20281;-58
2022/06/01 08:04:02;;;;;;;4.20;3.03;;;;;;;27.30;nan;-24572.66;5073208;28;20194;-58
2022/06/01 08:06:28;;;;;;;3.67;2.70;;;;;;;27.41;nan;-24575.66;5072871;28;20202;-58
2022/06/01 08:08:54;;;;;;;2.90;2.47;;;;;;;27.34;nan;-24573.63;5073136;28;20162;-58
2022/06/01 08:11:21;;;;;;;3.70;2.40;;;;;;;27.54;nan;-24579.25;5073805;28;20174;-58
2022/06/01 08:13:46;;;;;;;4.20;2.97;;;;;;;27.23;nan;-24570.75;5014857;28;20169;-58
2022/06/01 08:16:12;;;;;;;3.55;2.40;;;;;;;26.95;nan;-24563.19;4743095;28;20721;-57
2022/06/01 08:18:38;;;;;;;4.65;2.90;;;;;;;26.48;nan;-24550.44;5076146;28;20189;-57
2022/06/01 08:21:04;;;;;;;3.25;2.70;;;;;;;27.08;nan;-24566.75;5073352;28;20702;-57
2022/06/01 08:23:32;;;;;;;4.15;2.88;;;;;;;27.19;nan;-24569.78;5074706;28;20181;-57
2022/06/01 08:25:58;;;;;;;3.30;2.50;;;;;;;26.30;nan;-24545.63;5072596;28;20186;-57
2022/06/01 08:28:24;;;;;;;4.53;2.72;;;;;;;27.31;nan;-24572.78;5074703;28;20181;-57
2022/06/01 08:30:50;;;;;;;3.30;2.60;;;;;;;27.39;nan;-24575.13;5072368;28;20182;-58
2022/06/01 08:33:17;;;;;;;4.78;2.83;;;;;;;27.59;nan;-24580.47;5072568;28;20234;-57
2022/06/01 08:35:45;;;;;;;4.35;2.80;;;;;;;27.66;nan;-24582.53;5072795;28;20220;-57
2022/06/01 08:38:11;;;;;;;3.55;2.80;;;;;;;27.75;nan;-24584.72;5072484;28;20169;-57
2022/06/01 08:40:52;;;;;;;5.30;3.15;;;;;;;27.83;nan;-24587.03;5072629;28;20163;-57
2022/06/01 08:43:21;;;;;;;6.22;2.70;;;;;;;27.51;nan;-24578.28;5071815;28;20215;-58
2022/06/01 08:45:56;;;;;;;6.32;2.95;;;;;;;27.84;nan;-24587.19;5072663;28;20189;-58
2022/06/01 08:48:32;;;;;;;4.10;2.92;;;;;;;27.71;nan;-24583.63;5071065;28;20172;-58
2022/06/01 08:50:57;;;;;;;3.83;2.90;;;;;;;28.16;nan;-24595.81;5075441;28;20176;-57
2022/06/01 08:53:23;;;;;;;4.97;3.08;;;;;;;27.91;nan;-24589.09;5074179;28;20555;-58
2022/06/01 08:55:55;;;;;;;5.13;3.20;;;;;;;28.18;nan;-24596.50;5071599;28;20233;-58
2022/06/01 08:59:08;;;;;;;3.95;2.90;;;;;;;28.57;nan;-24607.03;5072210;28;20185;-58
2022/06/01 09:02:24;;;;;;;4.07;2.75;;;;;;;28.66;nan;-24609.34;5044695;28;20196;-58
2022/06/01 09:04:57;;;;;;;3.40;2.60;;;;;;;28.50;nan;-24605.13;5026981;28;20231;-58
2022/06/01 09:07:30;;;;;;;4.53;3.28;;;;;;;28.53;nan;-24605.94;5074187;28;20256;-58
2022/06/01 09:10:28;;;;;;;4.97;3.20;;;;;;;28.96;nan;-24617.69;5076861;28;20611;-58
2022/06/01 09:13:09;;;;;;;5.43;3.50;;;;;;;28.98;nan;-24618.25;5072369;28;20195;-58
2022/06/01 09:15:44;;;;;;;8.70;3.90;;;;;;;29.05;nan;-24620.00;5067422;28;20610;-58
2022/06/01 09:18:10;;;;;;;4.65;2.95;;;;;;;29.12;nan;-24621.78;5074131;28;20177;-58
2022/06/01 09:23:19;;;;;;;3.92;2.70;;;;;;;29.04;nan;-24619.59;5073630;28;20216;-57
2022/06/01 09:25:51;;;;;;;4.18;2.80;;;;;;;28.49;nan;-24604.97;5075070;28;20261;-56
2022/06/01 09:28:21;;;;;;;3.45;2.58;;;;;;;28.10;nan;-24594.44;5071774;28;20170;-56
2022/06/01 09:30:58;;;;;;;2.83;2.40;;;;;;;28.52;nan;-24605.78;5071349;28;20261;-57
2022/06/01 09:33:24;;;;;;;3.47;2.40;;;;;;;28.72;nan;-24611.13;5071353;28;20191;-58
2022/06/01 09:36:07;;;;;;;3.90;2.72;;;;;;;28.86;nan;-24614.97;5071552;28;20276;-57
2022/06/01 09:38:48;;;;;;;2.92;2.30;;;;;;;29.23;nan;-24624.94;5071193;28;20257;-58
2022/06/01 09:41:19;;;;;;;2.65;2.20;;;;;;;29.11;nan;-24621.53;5072475;28;20627;-58
2022/06/01 09:44:07;;;;;;;2.75;2.05;;;;;;;28.54;nan;-24606.34;5071130;28;20612;-58
2022/06/01 09:46:47;;;;;;;3.42;2.00;;;;;;;28.31;nan;-24599.91;5071552;28;20227;-57
2022/06/01 09:49:29;;;;;;;3.97;2.05;;;;;;;28.79;nan;-24613.03;5071283;28;20185;-57
2022/06/01 09:52:02;;;;;;;2.60;1.90;;;;;;;29.04;nan;-24619.75;5071002;28;20560;-57
2022/06/01 09:54:31;;;;;;;3.00;2.10;;;;;;;28.81;nan;-24613.59;4792441;28;20937;-58
2022/06/01 09:57:16;;;;;;;2.90;1.95;;;;;;;29.19;nan;-24623.69;4437122;28;20181;-56
2022/06/01 10:08:24;;;;;;;4.82;2.15;;;;;;;29.02;nan;-24619.19;5071352;28;20165;-57
2022/06/01 10:10:58;;;;;;;2.70;2.20;;;;;;;29.31;nan;-24627.13;5071259;28;20169;-57
2022/06/01 10:13:49;;;;;;;3.03;2.20;;;;;;;29.36;nan;-24628.34;5072644;28;20178;-58
2022/06/01 10:16:37;;;;;;;3.05;2.30;;;;;;;29.32;nan;-24627.41;5076357;28;20201;-58
2022/06/01 10:19:07;;;;;;;4.22;2.53;;;;;;;29.54;nan;-24633.25;5053556;28;20220;-56
2022/06/01 10:21:51;;;;;;;2.25;1.80;;;;;;;29.12;nan;-24621.78;5075012;28;20173;-56
2022/06/01 10:24:23;;;;;;;2.80;2.15;;;;;;;28.90;nan;-24615.91;5074371;28;20199;-57
2022/06/01 10:26:55;;;;;;;3.47;2.15;;;;;;;28.91;nan;-24616.31;5074374;28;20170;-57
2022/06/01 10:29:37;;;;;;;2.40;2.00;;;;;;;29.18;nan;-24623.44;5074304;28;20161;-58
2022/06/01 10:32:23;;;;;;;3.38;2.40;;;;;;;29.87;nan;-24642.00;5074391;28;20673;-57
2022/06/01 10:34:56;;;;;;;3.80;2.30;;;;;;;29.81;nan;-24640.63;5074299;28;20227;-57
2022/06/01 10:37:46;;;;;;;2.72;2.03;;;;;;;30.19;nan;-24650.72;5074229;28;20170;-57
2022/06/01 10:40:35;;;;;;;3.55;2.28;;;;;;;30.49;nan;-24658.78;5074028;28;20166;-58
2022/06/01 10:43:18;;;;;;;6.05;2.45;;;;;;;30.38;nan;-24655.91;5074235;28;20168;-62
2022/06/01 10:46:00;;;;;;;3.33;2.20;;;;;;;29.25;nan;-24625.47;5074173;28;20163;-57
2022/06/01 10:48:42;;;;;;;4.55;3.00;;;;;;;30.62;nan;-24662.31;5074326;28;20157;-57
2022/06/01 10:51:17;;;;;;;3.15;2.13;;;;;;;30.65;nan;-24663.25;5072175;28;20574;-57
2022/06/01 10:54:08;;;;;;;2.70;2.13;;;;;;;30.81;nan;-24667.34;5074074;28;20165;-58
2022/06/01 10:56:33;;;;;;;2.40;1.95;;;;;;;31.12;nan;-24675.78;5079550;28;20224;-57
2022/06/01 10:59:05;;;;;;;2.92;2.20;;;;;;;30.95;nan;-24671.16;5074511;28;20178;-57
2022/06/01 11:01:40;;;;;;;2.92;2.15;;;;;;;28.99;nan;-24618.50;5074646;28;20173;-57
2022/06/01 11:04:21;;;;;;;3.03;2.22;;;;;;;31.47;nan;-24685.16;5074622;28;20294;-57
2022/06/01 11:07:06;;;;;;;2.30;2.10;;;;;;;31.60;nan;-24688.56;5073927;28;20189;-57
2022/06/01 11:10:02;;;;;;;2.90;1.92;;;;;;;31.01;nan;-24672.94;5074298;28;20189;-57
2022/06/01 11:12:53;;;;;;;5.93;2.40;;;;;;;30.55;nan;-24660.53;5073971;28;20186;-58
2022/06/01 11:15:33;;;;;;;2.35;2.00;;;;;;;30.52;nan;-24659.72;5072323;28;20610;-57
2022/06/01 11:18:08;;;;;;;4.07;2.10;;;;;;;30.70;nan;-24664.50;5073754;28;20264;-58
2022/06/01 11:20:59;;;;;;;2.30;2.05;;;;;;;31.05;nan;-24674.03;5074158;28;20168;-57
2022/06/01 11:23:40;;;;;;;2.30;1.98;;;;;;;30.91;nan;-24670.22;5053508;28;20650;-57
2022/06/01 11:26:26;;;;;;;2.92;2.10;;;;;;;31.15;nan;-24676.59;5052642;28;20260;-57
2022/06/01 11:29:00;;;;;;;2.45;2.05;;;;;;;31.22;nan;-24678.50;5053695;28;20609;-57
2022/06/01 11:31:28;;;;;;;3.63;2.20;;;;;;;31.06;nan;-24674.16;5061749;28;20237;-57
2022/06/01 11:34:10;;;;;;;2.17;1.90;;;;;;;30.75;nan;-24665.72;5073590;28;20286;-57
2022/06/01 11:36:56;;;;;;;3.03;2.00;;;;;;;30.67;nan;-24663.81;5073616;28;20246;-57
2022/06/01 11:39:43;;;;;;;2.60;2.10;;;;;;;30.74;nan;-24665.56;5073618;28;20223;-58
2022/06/01 11:42:17;;;;;;;3.33;2.00;;;;;;;31.00;nan;-24672.66;5073640;28;20638;-58
2022/06/01 11:45:01;;;;;;;3.20;2.15;;;;;;;30.85;nan;-24668.56;5073661;28;20617;-58
2022/06/01 11:47:33;;;;;;;3.65;1.95;;;;;;;26.09;nan;-24539.84;5080186;28;20181;-58
2022/06/01 11:50:05;;;;;;;2.45;1.58;;;;;;;30.31;nan;-24654.00;5080350;28;20192;-57
2022/06/01 11:52:43;;;;;;;2.15;1.85;;;;;;;30.13;nan;-24649.09;5073617;28;20212;-58
2022/06/01 11:55:20;;;;;;;2.53;2.00;;;;;;;30.48;nan;-24658.50;5079247;28;20235;-58
2022/06/01 11:58:04;;;;;;;3.80;2.38;;;;;;;30.65;nan;-24663.13;5080677;28;20176;-58
2022/06/01 12:00:40;;;;;;;2.22;2.00;;;;;;;30.82;nan;-24667.75;5079255;28;20220;-58
2022/06/01 12:03:21;;;;;;;3.15;2.10;;;;;;;31.34;nan;-24681.78;5078254;28;20528;-57
2022/06/01 12:06:08;;;;;;;2.17;1.90;;;;;;;31.63;nan;-24689.41;5078233;28;20640;-57
2022/06/01 12:08:53;;;;;;;1.98;1.70;;;;;;;31.52;nan;-24686.66;5075703;28;20173;-57
2022/06/01 12:11:40;;;;;;;3.10;1.67;;;;;;;31.21;nan;-24678.25;5076982;28;20632;-58
2022/06/01 12:14:34;;;;;;;2.67;2.00;;;;;;;30.88;nan;-24669.38;5078603;28;20176;-56
2022/06/01 12:17:18;;;;;;;2.63;2.42;;;;;;;30.55;nan;-24660.41;5076484;28;20200;-57
2022/06/01 12:19:47;;;;;;;5.18;2.20;;;;;;;31.07;nan;-24674.44;5077287;28;20185;-57